Time;durP1;ratioP1;P1;durP2;ratioP2;P2;SDS_P1;SDS_P2;PMS_P1;PMS_P2;Temp;Humidity;BMP_temperature;BMP_pressure;BME280_temperature;BME280_humidity;BME280_pressure;Samples;Min_cycle;Max_cycle;Signal;HPM_P1;HPM_P2
2022/06/29 00:00:15;;;;;;;0.00;0.00;;;25.70;85.00;;;;;;4903795;29;20059;-74
2022/06/29 00:02:43;;;;;;;0.00;0.00;;;25.60;85.10;;;;;;4917578;29;20205;-73
2022/06/29 00:05:11;;;;;;;0.00;0.00;;;25.60;85.30;;;;;;4907252;29;20200;-74
2022/06/29 00:07:37;;;;;;;0.00;0.00;;;25.60;85.50;;;;;;4907127;29;20419;-74
2022/06/29 00:10:04;;;;;;;0.00;0.00;;;25.50;85.40;;;;;;4911596;29;20079;-73
2022/06/29 00:12:29;;;;;;;0.00;0.00;;;25.50;85.60;;;;;;4909250;29;20119;-74
2022/06/29 00:14:56;;;;;;;0.00;0.00;;;25.40;85.90;;;;;;4907825;29;20239;-74
2022/06/29 00:17:22;;;;;;;0.00;0.00;;;25.40;86.10;;;;;;4909670;29;20043;-73
2022/06/29 00:19:48;;;;;;;0.00;0.00;;;25.40;86.40;;;;;;4902914;29;20149;-74
2022/06/29 00:22:14;;;;;;;0.00;0.00;;;25.40;86.70;;;;;;4903310;29;20061;-75
2022/06/29 00:24:39;;;;;;;0.00;0.00;;;25.30;86.80;;;;;;4913691;29;20028;-74
2022/06/29 00:27:05;;;;;;;0.00;0.00;;;25.30;87.00;;;;;;4907917;29;20205;-74
2022/06/29 00:29:31;;;;;;;0.00;0.00;;;25.30;87.10;;;;;;4903117;29;20206;-74
2022/06/29 00:31:57;;;;;;;0.00;0.00;;;25.20;87.30;;;;;;4922270;29;20303;-73
2022/06/29 00:34:23;;;;;;;0.00;0.00;;;25.20;87.40;;;;;;4910626;29;20056;-75
2022/06/29 00:36:48;;;;;;;0.00;0.00;;;25.20;87.60;;;;;;4905123;29;20034;-75
2022/06/29 00:39:14;;;;;;;0.00;0.00;;;25.20;87.70;;;;;;4902667;29;20024;-73
2022/06/29 00:41:45;;;;;;;0.00;0.00;;;25.20;87.80;;;;;;4904182;29;20044;-75
2022/06/29 00:44:15;;;;;;;0.00;0.00;;;25.20;87.90;;;;;;4902158;29;20021;-74
2022/06/29 00:46:47;;;;;;;0.00;0.00;;;25.20;87.90;;;;;;4906212;29;20483;-74
2022/06/29 00:49:15;;;;;;;0.00;0.00;;;25.10;88.00;;;;;;4908739;29;20029;-74
2022/06/29 00:51:47;;;;;;;0.00;0.00;;;25.10;88.10;;;;;;4920078;29;20218;-74
2022/06/29 00:54:18;;;;;;;0.00;0.00;;;25.10;88.30;;;;;;4916157;29;20329;-74
2022/06/29 00:56:45;;;;;;;0.00;0.00;;;25.10;88.40;;;;;;4904595;29;20111;-74
2022/06/29 00:59:19;;;;;;;0.00;0.00;;;25.10;88.60;;;;;;4914688;29;20024;-74
2022/06/29 01:01:44;;;;;;;0.00;0.00;;;25.00;88.80;;;;;;4907574;29;20068;-74
2022/06/29 01:04:10;;;;;;;0.00;0.00;;;25.00;88.90;;;;;;4912414;29;20027;-73
2022/06/29 01:06:37;;;;;;;0.00;0.00;;;25.00;89.10;;;;;;4907816;29;20059;-75
2022/06/29 01:09:04;;;;;;;0.00;0.00;;;25.00;89.30;;;;;;4907853;29;20028;-74
2022/06/29 01:11:31;;;;;;;0.00;0.00;;;25.00;89.50;;;;;;4925671;29;20048;-74
2022/06/29 01:13:57;;;;;;;0.00;0.00;;;24.90;89.70;;;;;;4910655;29;20037;-74
2022/06/29 01:16:22;;;;;;;0.00;0.00;;;24.90;89.80;;;;;;4907356;29;20059;-74
2022/06/29 01:18:48;;;;;;;0.00;0.00;;;24.90;90.30;;;;;;4911062;29;20032;-74
2022/06/29 01:21:15;;;;;;;0.00;0.00;;;24.90;90.00;;;;;;4925909;29;20030;-74
2022/06/29 01:23:41;;;;;;;0.00;0.00;;;24.90;90.10;;;;;;4907328;29;20095;-75
2022/06/29 01:26:08;;;;;;;0.00;0.00;;;24.90;90.20;;;;;;4923678;29;20024;-75
2022/06/29 01:28:34;;;;;;;0.00;0.00;;;24.80;90.20;;;;;;4910423;29;20036;-74
2022/06/29 01:31:00;;;;;;;0.00;0.00;;;24.80;90.20;;;;;;4909233;29;20046;-74
2022/06/29 01:33:26;;;;;;;0.00;0.00;;;24.80;90.30;;;;;;4907656;29;20031;-74
2022/06/29 01:35:52;;;;;;;0.00;0.00;;;24.80;90.40;;;;;;4913901;29;20101;-74
2022/06/29 01:38:19;;;;;;;0.00;0.00;;;24.80;90.50;;;;;;4907838;29;20246;-73
2022/06/29 01:40:45;;;;;;;0.00;0.00;;;24.80;90.50;;;;;;4910389;29;20020;-74
2022/06/29 01:43:11;;;;;;;0.00;0.00;;;24.80;90.50;;;;;;4907685;29;20051;-74
2022/06/29 01:45:37;;;;;;;0.00;0.00;;;24.70;90.50;;;;;;4909622;29;20315;-73
2022/06/29 01:48:04;;;;;;;0.00;0.00;;;24.70;90.60;;;;;;4924480;29;20027;-74
2022/06/29 01:50:30;;;;;;;0.00;0.00;;;24.70;90.60;;;;;;4916065;29;20654;-74
2022/06/29 01:52:55;;;;;;;0.00;0.00;;;24.70;90.60;;;;;;4906031;29;20036;-74
2022/06/29 01:55:21;;;;;;;0.00;0.00;;;24.70;90.60;;;;;;4903844;29;20040;-75
2022/06/29 01:57:46;;;;;;;0.00;0.00;;;24.70;90.70;;;;;;4906227;29;20224;-75
2022/06/29 02:00:13;;;;;;;0.00;0.00;;;24.60;90.70;;;;;;4902479;29;20066;-76
2022/06/29 02:02:38;;;;;;;0.00;0.00;;;24.60;90.80;;;;;;4908094;29;20016;-73
2022/06/29 02:05:04;;;;;;;0.00;0.00;;;24.60;90.80;;;;;;4902206;29;20035;-77
2022/06/29 02:07:30;;;;;;;0.00;0.00;;;24.60;90.90;;;;;;4901874;29;20025;-76
2022/06/29 02:09:56;;;;;;;0.00;0.00;;;24.60;90.90;;;;;;4914842;29;20036;-75
2022/06/29 02:12:21;;;;;;;0.00;0.00;;;24.50;91.00;;;;;;4910369;29;20272;-75
2022/06/29 02:14:47;;;;;;;0.00;0.00;;;24.60;91.10;;;;;;4920400;29;20067;-74
2022/06/29 02:17:13;;;;;;;0.00;0.00;;;24.60;91.10;;;;;;4900721;29;20017;-75
2022/06/29 02:19:39;;;;;;;0.00;0.00;;;24.60;91.10;;;;;;4915585;29;20025;-75
2022/06/29 02:22:05;;;;;;;0.00;0.00;;;24.60;91.10;;;;;;4901486;29;20105;-75
2022/06/29 02:24:31;;;;;;;0.00;0.00;;;24.60;91.10;;;;;;4902162;29;20322;-74
2022/06/29 02:26:56;;;;;;;0.00;0.00;;;24.50;91.10;;;;;;4918056;29;20035;-74
2022/06/29 02:29:22;;;;;;;0.00;0.00;;;24.50;91.00;;;;;;4936775;28;20043;-75
2022/06/29 02:34:44;;;;;;;0.00;0.00;;;24.50;91.20;;;;;;4908946;29;20341;-75
2022/06/29 02:37:10;;;;;;;0.00;0.00;;;24.50;91.20;;;;;;4912963;29;20452;-74
2022/06/29 02:39:36;;;;;;;0.00;0.00;;;24.50;91.30;;;;;;4909326;29;20025;-74
2022/06/29 02:42:02;;;;;;;0.00;0.00;;;24.50;91.40;;;;;;4910768;29;20558;-74
2022/06/29 02:44:28;;;;;;;0.00;0.00;;;24.50;91.50;;;;;;4913727;29;20027;-75
2022/06/29 02:46:53;;;;;;;0.00;0.00;;;24.50;91.60;;;;;;4921194;29;20033;-74
2022/06/29 02:49:19;;;;;;;0.00;0.00;;;24.60;91.60;;;;;;4903081;29;20043;-74
2022/06/29 02:51:45;;;;;;;0.00;0.00;;;24.50;91.60;;;;;;4906832;29;20054;-74
2022/06/29 02:54:10;;;;;;;0.00;0.00;;;24.50;91.60;;;;;;4900290;29;20052;-75
2022/06/29 02:56:36;;;;;;;0.00;0.00;;;24.50;91.70;;;;;;4908820;29;20115;-74
2022/06/29 02:59:02;;;;;;;0.00;0.00;;;24.40;91.70;;;;;;4904325;29;20028;-73
2022/06/29 03:01:27;;;;;;;0.00;0.00;;;24.40;91.80;;;;;;4907067;29;20235;-75
2022/06/29 03:03:53;;;;;;;0.00;0.00;;;24.40;91.90;;;;;;4905671;29;20021;-74
2022/06/29 03:06:19;;;;;;;0.00;0.00;;;24.30;92.00;;;;;;4909672;29;20032;-75
2022/06/29 03:08:44;;;;;;;0.00;0.00;;;24.30;92.10;;;;;;4905774;29;20039;-75
2022/06/29 03:11:11;;;;;;;0.00;0.00;;;24.20;92.10;;;;;;4922192;29;20352;-75
2022/06/29 03:13:37;;;;;;;0.00;0.00;;;24.20;92.20;;;;;;4910697;29;20024;-76
2022/06/29 03:16:03;;;;;;;0.00;0.00;;;24.20;92.40;;;;;;4910934;29;20185;-75
2022/06/29 03:18:29;;;;;;;0.00;0.00;;;24.20;92.50;;;;;;4907246;29;20223;-75
2022/06/29 03:20:54;;;;;;;0.00;0.00;;;24.20;92.60;;;;;;4908184;29;20033;-75
2022/06/29 03:23:20;;;;;;;0.00;0.00;;;24.10;92.70;;;;;;4907034;29;20387;-75
2022/06/29 03:25:46;;;;;;;0.00;0.00;;;24.10;92.70;;;;;;4907126;29;20054;-75
2022/06/29 03:28:11;;;;;;;0.00;0.00;;;24.10;92.70;;;;;;4906947;29;20016;-75
2022/06/29 03:30:37;;;;;;;0.00;0.00;;;24.10;92.80;;;;;;4917398;29;20045;-76
2022/06/29 03:33:03;;;;;;;0.00;0.00;;;24.00;92.90;;;;;;4902442;29;20020;-75
2022/06/29 03:35:28;;;;;;;0.00;0.00;;;24.00;92.90;;;;;;4911152;29;20130;-75
2022/06/29 03:37:54;;;;;;;0.00;0.00;;;24.10;93.00;;;;;;4899761;29;20048;-74
2022/06/29 03:40:20;;;;;;;0.00;0.00;;;24.10;93.00;;;;;;4904067;29;20200;-75
2022/06/29 03:42:46;;;;;;;0.00;0.00;;;24.10;93.10;;;;;;4900519;29;20024;-75
2022/06/29 03:45:12;;;;;;;0.00;0.00;;;24.10;93.10;;;;;;4916211;29;20194;-75
2022/06/29 03:47:39;;;;;;;0.00;0.00;;;24.10;93.10;;;;;;4903701;29;20028;-74
2022/06/29 03:50:08;;;;;;;0.00;0.00;;;24.20;93.10;;;;;;4899820;29;20032;-75
2022/06/29 03:52:34;;;;;;;0.00;0.00;;;24.20;93.00;;;;;;4898603;29;20092;-75
2022/06/29 03:55:00;;;;;;;0.00;0.00;;;24.20;93.00;;;;;;4905823;29;20331;-75
2022/06/29 03:57:26;;;;;;;0.00;0.00;;;24.20;93.10;;;;;;4904030;29;20032;-76
2022/06/29 03:59:51;;;;;;;0.00;0.00;;;24.20;93.10;;;;;;4918633;29;20244;-75
2022/06/29 04:02:17;;;;;;;0.00;0.00;;;24.20;93.00;;;;;;4900857;29;20035;-75
2022/06/29 04:04:43;;;;;;;0.00;0.00;;;24.20;92.90;;;;;;4914229;29;20020;-75
2022/06/29 04:07:08;;;;;;;0.00;0.00;;;24.20;93.00;;;;;;4905109;29;20047;-75
2022/06/29 04:09:34;;;;;;;0.00;0.00;;;24.20;92.90;;;;;;4937790;28;20362;-75
2022/06/29 04:12:00;;;;;;;0.00;0.00;;;24.20;92.90;;;;;;4911555;29;20088;-74
2022/06/29 04:14:28;;;;;;;0.00;0.00;;;24.20;93.00;;;;;;4901029;29;20072;-85
2022/06/29 04:16:56;;;;;;;0.00;0.00;;;24.20;93.00;;;;;;4904801;29;20035;-75
2022/06/29 04:19:21;;;;;;;;;;;24.20;93.00;;;;;;4903825;29;20037;-74
2022/06/29 04:21:48;;;;;;;0.00;0.00;;;24.20;93.00;;;;;;4899779;29;20305;-75
2022/06/29 04:24:14;;;;;;;0.00;0.00;;;24.20;93.10;;;;;;4903062;29;20032;-74
2022/06/29 04:26:40;;;;;;;0.00;0.00;;;24.20;93.20;;;;;;4902169;29;20039;-73
2022/06/29 04:29:06;;;;;;;0.00;0.00;;;24.20;93.20;;;;;;4903658;29;20254;-75
2022/06/29 04:31:32;;;;;;;0.00;0.00;;;24.30;93.20;;;;;;4901678;29;20044;-75
2022/06/29 04:33:59;;;;;;;0.00;0.00;;;24.30;93.20;;;;;;4913803;29;20024;-74
2022/06/29 04:36:24;;;;;;;0.00;0.00;;;24.30;93.20;;;;;;4904984;29;20042;-75
2022/06/29 04:38:50;;;;;;;0.00;0.00;;;24.30;93.20;;;;;;4900092;29;20118;-74
2022/06/29 04:41:16;;;;;;;0.00;0.00;;;24.40;93.20;;;;;;4904420;29;20041;-75
2022/06/29 04:43:41;;;;;;;0.00;0.00;;;24.40;93.20;;;;;;4906820;29;20349;-73
2022/06/29 04:46:19;;;;;;;0.00;0.00;;;24.50;93.30;;;;;;4902034;29;20087;-75
2022/06/29 04:48:48;;;;;;;0.00;0.00;;;24.50;93.20;;;;;;4909590;29;20315;-75
2022/06/29 04:51:15;;;;;;;0.00;0.00;;;24.50;93.20;;;;;;4921209;29;20035;-74
2022/06/29 04:53:42;;;;;;;0.00;0.00;;;24.60;93.10;;;;;;4915404;29;20031;-74
2022/06/29 04:56:08;;;;;;;0.00;0.00;;;24.70;92.90;;;;;;4919818;29;20048;-73
2022/06/29 04:58:34;;;;;;;0.00;0.00;;;24.80;92.70;;;;;;4912606;29;20035;-74
2022/06/29 05:00:59;;;;;;;0.00;0.00;;;24.90;92.70;;;;;;4921742;29;20036;-74
2022/06/29 05:03:25;;;;;;;0.00;0.00;;;24.90;92.60;;;;;;4916780;29;20222;-74
2022/06/29 05:05:51;;;;;;;0.00;0.00;;;25.00;92.50;;;;;;4908068;29;20315;-72
2022/06/29 05:08:17;;;;;;;0.00;0.00;;;25.10;92.60;;;;;;4906372;29;20250;-76
2022/06/29 05:10:43;;;;;;;0.00;0.00;;;25.20;92.80;;;;;;4915956;29;20037;-77
2022/06/29 05:13:09;;;;;;;0.00;0.00;;;25.20;92.30;;;;;;4905580;29;20058;-78
2022/06/29 05:15:35;;;;;;;0.00;0.00;;;25.30;92.20;;;;;;4901548;29;20025;-75
2022/06/29 05:18:01;;;;;;;0.00;0.00;;;25.30;92.10;;;;;;4918136;29;20051;-72
2022/06/29 05:20:27;;;;;;;0.00;0.00;;;25.40;92.10;;;;;;4918803;29;20035;-79
2022/06/29 05:22:53;;;;;;;0.00;0.00;;;25.40;92.10;;;;;;4905251;29;20023;-79
2022/06/29 05:25:19;;;;;;;0.00;0.00;;;25.40;92.30;;;;;;4905762;29;20037;-79
2022/06/29 05:27:46;;;;;;;0.00;0.00;;;25.40;92.60;;;;;;4912597;29;20188;-77
2022/06/29 05:30:12;;;;;;;0.00;0.00;;;25.50;92.20;;;;;;4910127;29;20028;-76
2022/06/29 05:32:38;;;;;;;0.00;0.00;;;25.50;92.20;;;;;;4913212;29;20087;-79
2022/06/29 05:35:04;;;;;;;0.00;0.00;;;25.60;92.40;;;;;;4941525;28;20047;-75
2022/06/29 05:37:31;;;;;;;0.00;0.00;;;25.60;92.20;;;;;;4918683;29;20023;-72
2022/06/29 05:39:57;;;;;;;0.00;0.00;;;25.70;92.20;;;;;;4908904;29;20088;-72
2022/06/29 05:42:22;;;;;;;0.00;0.00;;;25.80;92.30;;;;;;4905457;29;20047;-72
2022/06/29 05:44:48;;;;;;;0.00;0.00;;;25.80;92.20;;;;;;4913038;29;20051;-72
2022/06/29 05:47:14;;;;;;;0.00;0.00;;;25.80;91.90;;;;;;4914642;29;20099;-73
2022/06/29 05:49:40;;;;;;;0.00;0.00;;;25.80;91.60;;;;;;4914651;29;20248;-73
2022/06/29 05:52:06;;;;;;;0.00;0.00;;;25.90;91.40;;;;;;4915827;29;20055;-73
2022/06/29 05:54:32;;;;;;;0.00;0.00;;;25.90;91.40;;;;;;4915654;29;20044;-73
2022/06/29 05:56:58;;;;;;;0.00;0.00;;;26.00;91.40;;;;;;4931361;29;20083;-71
2022/06/29 05:59:24;;;;;;;0.00;0.00;;;26.10;91.70;;;;;;4915482;29;20258;-72
2022/06/29 06:01:50;;;;;;;0.00;0.00;;;26.20;91.40;;;;;;4916046;29;20072;-74
2022/06/29 06:04:15;;;;;;;0.00;0.00;;;26.30;91.20;;;;;;4900382;29;20149;-72
2022/06/29 06:06:41;;;;;;;0.00;0.00;;;26.40;90.80;;;;;;4911812;29;20079;-73
2022/06/29 06:09:07;;;;;;;0.00;0.00;;;26.40;90.60;;;;;;4901777;29;20072;-74
2022/06/29 06:11:32;;;;;;;0.00;0.00;;;26.50;90.70;;;;;;4936223;28;20312;-72
2022/06/29 06:13:58;;;;;;;0.00;0.00;;;26.60;90.60;;;;;;4914410;29;20029;-73
2022/06/29 06:16:23;;;;;;;0.00;0.00;;;26.60;90.20;;;;;;4933028;29;20027;-73
2022/06/29 06:18:49;;;;;;;0.00;0.00;;;26.60;90.10;;;;;;4912341;29;20028;-74
2022/06/29 06:21:15;;;;;;;0.00;0.00;;;26.50;90.20;;;;;;4900994;29;20051;-73
2022/06/29 06:23:40;;;;;;;0.00;0.00;;;26.50;90.40;;;;;;4902708;29;20317;-73
2022/06/29 06:26:06;;;;;;;0.00;0.00;;;26.50;90.40;;;;;;4947949;28;20310;-73
2022/06/29 06:28:32;;;;;;;0.00;0.00;;;26.60;90.50;;;;;;4911708;29;20227;-72
2022/06/29 06:30:57;;;;;;;0.00;0.00;;;26.50;90.30;;;;;;4918829;29;20116;-73
2022/06/29 06:33:23;;;;;;;0.00;0.00;;;26.50;90.50;;;;;;4912791;29;20334;-73
2022/06/29 06:35:49;;;;;;;0.00;0.00;;;26.50;90.50;;;;;;4905657;29;20032;-73
2022/06/29 06:38:16;;;;;;;0.00;0.00;;;26.70;90.40;;;;;;4916744;29;20103;-74
2022/06/29 06:43:26;;;;;;;0.00;0.00;;;27.10;89.90;;;;;;4909392;29;20115;-72
2022/06/29 06:45:52;;;;;;;0.00;0.00;;;27.20;89.30;;;;;;4943179;28;20032;-74
2022/06/29 06:48:17;;;;;;;0.00;0.00;;;27.20;88.40;;;;;;4946945;28;20044;-74
2022/06/29 06:50:44;;;;;;;0.00;0.00;;;27.20;88.40;;;;;;4911034;29;20039;-73
2022/06/29 06:53:09;;;;;;;0.00;0.00;;;27.20;88.00;;;;;;4905406;29;20030;-74
2022/06/29 06:55:36;;;;;;;0.00;0.00;;;27.30;87.90;;;;;;4917975;29;20044;-74
2022/06/29 06:58:02;;;;;;;0.00;0.00;;;27.50;86.90;;;;;;4916111;29;20048;-74
2022/06/29 07:00:28;;;;;;;0.00;0.00;;;27.60;86.70;;;;;;4904958;29;20072;-74
2022/06/29 07:02:54;;;;;;;0.00;0.00;;;27.70;86.70;;;;;;4904471;29;20029;-74
2022/06/29 07:05:20;;;;;;;0.00;0.00;;;27.90;86.60;;;;;;4907033;29;20074;-74
2022/06/29 07:07:46;;;;;;;0.00;0.00;;;28.30;86.20;;;;;;4902614;29;20026;-72
2022/06/29 07:10:11;;;;;;;0.00;0.00;;;28.90;85.40;;;;;;4926566;29;20032;-73
2022/06/29 07:12:37;;;;;;;0.00;0.00;;;29.60;83.10;;;;;;4903622;29;20036;-76
2022/06/29 07:15:04;;;;;;;0.00;0.00;;;30.20;80.90;;;;;;4902266;29;20032;-75
2022/06/29 07:17:30;;;;;;;0.00;0.00;;;30.40;80.60;;;;;;4897558;29;20221;-75
2022/06/29 07:19:55;;;;;;;0.00;0.00;;;30.30;78.20;;;;;;4895442;29;20171;-74
2022/06/29 07:22:21;;;;;;;0.00;0.00;;;29.90;78.50;;;;;;4903616;29;20104;-74
2022/06/29 07:24:47;;;;;;;0.00;0.00;;;29.70;79.20;;;;;;4903401;29;20040;-72
2022/06/29 07:27:13;;;;;;;0.00;0.00;;;29.60;79.80;;;;;;4892053;29;21106;-72
2022/06/29 07:29:39;;;;;;;0.00;0.00;;;29.40;80.00;;;;;;4891900;29;20028;-72
2022/06/29 07:32:05;;;;;;;0.00;0.00;;;29.40;80.60;;;;;;4900247;29;20055;-73
2022/06/29 07:34:30;;;;;;;0.00;0.00;;;29.40;80.30;;;;;;4901248;29;20028;-72
2022/06/29 07:36:56;;;;;;;0.00;0.00;;;29.40;80.90;;;;;;4905550;29;20020;-72
2022/06/29 07:39:21;;;;;;;0.00;0.00;;;29.30;80.70;;;;;;4906156;29;20103;-73
2022/06/29 07:41:47;;;;;;;0.00;0.00;;;29.20;80.50;;;;;;4901264;29;20036;-71
2022/06/29 07:44:13;;;;;;;0.00;0.00;;;29.20;80.90;;;;;;4900946;29;20046;-72
2022/06/29 07:46:39;;;;;;;0.00;0.00;;;29.30;82.10;;;;;;4901315;29;20123;-71
2022/06/29 07:49:05;;;;;;;0.00;0.00;;;29.20;80.80;;;;;;4901262;29;20291;-73
2022/06/29 07:51:30;;;;;;;0.00;0.00;;;29.30;81.00;;;;;;4902745;29;20037;-71
2022/06/29 07:53:56;;;;;;;0.00;0.00;;;29.50;81.30;;;;;;4900382;29;20021;-71
2022/06/29 07:56:22;;;;;;;0.00;0.00;;;29.60;81.20;;;;;;4914541;29;20067;-71
2022/06/29 07:58:47;;;;;;;0.00;0.00;;;29.80;79.30;;;;;;4911245;29;20111;-71
2022/06/29 08:01:13;;;;;;;0.00;0.00;;;30.00;80.20;;;;;;4904645;29;20047;-69
2022/06/29 08:03:38;;;;;;;0.00;0.00;;;30.20;80.20;;;;;;4897695;29;20024;-75
2022/06/29 08:06:07;;;;;;;0.00;0.00;;;30.40;78.30;;;;;;4903308;29;20032;-70
2022/06/29 08:08:32;;;;;;;0.00;0.00;;;30.60;77.40;;;;;;4901565;29;20103;-70
2022/06/29 08:10:58;;;;;;;0.00;0.00;;;31.20;77.50;;;;;;4904062;29;20056;-71
2022/06/29 08:13:24;;;;;;;0.00;0.00;;;31.80;74.10;;;;;;4904383;29;20099;-72
2022/06/29 08:15:50;;;;;;;0.00;0.00;;;32.40;73.30;;;;;;4906146;29;20819;-71
2022/06/29 08:18:16;;;;;;;0.00;0.00;;;32.90;72.40;;;;;;4901423;29;20156;-73
2022/06/29 08:20:43;;;;;;;0.00;0.00;;;32.90;70.30;;;;;;4915645;29;20032;-72
2022/06/29 08:23:10;;;;;;;0.00;0.00;;;33.10;69.90;;;;;;4909668;29;20031;-73
2022/06/29 08:25:36;;;;;;;0.00;0.00;;;33.60;70.60;;;;;;4906050;29;20052;-72
2022/06/29 08:28:02;;;;;;;0.00;0.00;;;34.00;69.20;;;;;;4903262;29;20390;-71
2022/06/29 08:30:28;;;;;;;0.00;0.00;;;34.10;67.60;;;;;;4906643;29;20066;-71
2022/06/29 08:32:54;;;;;;;0.00;0.00;;;34.60;69.50;;;;;;4906869;29;20111;-70
2022/06/29 08:35:20;;;;;;;0.00;0.00;;;34.70;66.30;;;;;;4904079;29;20024;-72
2022/06/29 08:37:47;;;;;;;0.00;0.00;;;34.90;66.20;;;;;;4899634;29;20032;-72
2022/06/29 08:40:14;;;;;;;;;;;34.90;66.40;;;;;;4901294;29;20122;-72
2022/06/29 08:42:41;;;;;;;0.00;0.00;;;35.40;65.00;;;;;;4902875;29;19910;-71
2022/06/29 08:45:08;;;;;;;0.00;0.00;;;35.60;63.80;;;;;;4900867;29;20036;-71
2022/06/29 08:47:35;;;;;;;0.00;0.00;;;36.00;66.20;;;;;;4902679;29;20043;-72
2022/06/29 08:50:08;;;;;;;0.00;0.00;;;36.00;62.60;;;;;;4903817;29;20025;-71
2022/06/29 08:52:38;;;;;;;0.00;0.00;;;36.10;62.90;;;;;;4917636;29;20036;-71
2022/06/29 08:55:05;;;;;;;0.00;0.00;;;36.60;64.00;;;;;;4904616;29;20056;-72
2022/06/29 08:57:35;;;;;;;0.00;0.00;;;36.90;62.00;;;;;;4905505;29;20035;-71
2022/06/29 09:00:01;;;;;;;0.00;0.00;;;36.40;59.90;;;;;;4905681;29;20287;-72
2022/06/29 09:02:27;;;;;;;0.00;0.00;;;36.90;63.90;;;;;;4902127;29;20029;-72
2022/06/29 09:04:54;;;;;;;0.00;0.00;;;37.40;59.60;;;;;;4903255;29;20128;-71
2022/06/29 09:07:20;;;;;;;0.00;0.00;;;37.40;59.40;;;;;;4905372;29;20033;-71
2022/06/29 09:10:11;;;;;;;0.00;0.00;;;36.80;58.80;;;;;;4901990;29;20028;-71
2022/06/29 09:12:38;;;;;;;0.00;0.00;;;36.40;58.40;;;;;;4901689;29;20308;-72
2022/06/29 09:15:07;;;;;;;0.00;0.00;;;35.60;59.80;;;;;;4902691;29;20032;-71
2022/06/29 09:17:34;;;;;;;0.00;0.00;;;35.30;61.10;;;;;;4938149;28;20038;-71
2022/06/29 09:20:01;;;;;;;0.00;0.00;;;35.20;60.20;;;;;;4908303;29;20084;-72
2022/06/29 09:22:26;;;;;;;0.00;0.00;;;35.30;63.00;;;;;;4905101;29;20044;-73
2022/06/29 09:24:52;;;;;;;0.00;0.00;;;36.20;61.60;;;;;;4906298;29;20106;-74
2022/06/29 09:27:18;;;;;;;0.00;0.00;;;37.10;60.40;;;;;;4904243;29;20040;-74
2022/06/29 09:29:45;;;;;;;0.00;0.00;;;38.00;60.10;;;;;;4902319;29;20532;-74
2022/06/29 09:32:15;;;;;;;0.00;0.00;;;38.70;56.20;;;;;;4901785;29;20562;-75
2022/06/29 09:34:47;;;;;;;0.00;0.00;;;39.00;55.40;;;;;;4905263;29;20028;-74
2022/06/29 09:37:17;;;;;;;0.00;0.00;;;39.40;54.00;;;;;;4932753;28;20032;-74
2022/06/29 09:39:47;;;;;;;0.00;0.00;;;39.60;55.20;;;;;;4902879;29;20024;-75
2022/06/29 09:42:19;;;;;;;0.00;0.00;;;40.20;53.70;;;;;;4900908;29;20427;-75
2022/06/29 09:44:46;;;;;;;0.00;0.00;;;41.00;53.00;;;;;;4919739;29;20175;-75
2022/06/29 09:47:17;;;;;;;0.00;0.00;;;41.00;51.90;;;;;;4905160;29;20507;-76
2022/06/29 09:49:53;;;;;;;0.00;0.00;;;40.80;51.80;;;;;;4905059;29;20047;-75
2022/06/29 09:52:20;;;;;;;0.00;0.00;;;40.50;52.60;;;;;;4910875;29;20063;-75
2022/06/29 09:54:57;;;;;;;0.00;0.00;;;40.70;52.00;;;;;;4903371;29;20225;-75
2022/06/29 09:57:31;;;;;;;0.00;0.00;;;41.00;51.00;;;;;;4904910;29;20023;-75
2022/06/29 10:02:53;;;;;;;0.00;0.00;;;42.50;50.40;;;;;;4904907;29;20043;-75
2022/06/29 10:05:22;;;;;;;0.00;0.00;;;42.40;49.10;;;;;;4905799;29;20052;-75
2022/06/29 10:07:52;;;;;;;0.00;0.00;;;42.30;50.30;;;;;;4902135;29;20028;-74
2022/06/29 10:10:24;;;;;;;0.00;0.00;;;41.60;49.70;;;;;;4931797;28;20305;-74
2022/06/29 10:16:28;;;;;;;0.00;0.00;;;42.70;49.60;;;;;;4902702;29;20019;-75
2022/06/29 10:19:07;;;;;;;0.00;0.00;;;43.30;49.10;;;;;;4907599;29;20206;-74
2022/06/29 10:21:33;;;;;;;0.00;0.00;;;43.80;47.80;;;;;;4901413;29;20169;-75
2022/06/29 10:24:02;;;;;;;0.00;0.00;;;44.40;46.50;;;;;;4906223;29;20260;-75
2022/06/29 10:26:37;;;;;;;0.00;0.00;;;44.80;46.90;;;;;;4901139;29;20025;-74
2022/06/29 10:29:05;;;;;;;0.00;0.00;;;45.00;46.00;;;;;;4903894;29;20028;-75
2022/06/29 10:31:59;;;;;;;0.00;0.00;;;45.30;45.70;;;;;;4925082;29;20259;-75
2022/06/29 10:34:31;;;;;;;0.00;0.00;;;45.40;44.80;;;;;;4904454;29;20047;-75
2022/06/29 10:37:04;;;;;;;0.00;0.00;;;46.30;45.30;;;;;;4906358;29;20025;-75
2022/06/29 10:39:45;;;;;;;0.00;0.00;;;46.20;43.90;;;;;;4904469;29;20030;-75
2022/06/29 10:45:47;;;;;;;0.00;0.00;;;46.50;43.70;;;;;;4906518;29;20103;-75
2022/06/29 10:48:14;;;;;;;0.00;0.00;;;46.90;43.00;;;;;;4897995;29;20033;-75
2022/06/29 10:50:42;;;;;;;0.00;0.00;;;46.80;42.40;;;;;;4904246;29;20123;-74
2022/06/29 10:53:10;;;;;;;0.00;0.00;;;47.30;41.80;;;;;;4908928;29;20055;-74
2022/06/29 10:55:42;;;;;;;0.00;0.00;;;47.60;42.10;;;;;;4906794;29;20144;-75
2022/06/29 10:58:08;;;;;;;0.00;0.00;;;47.00;41.50;;;;;;4908162;28;20035;-75
2022/06/29 11:00:39;;;;;;;0.00;0.00;;;46.60;42.20;;;;;;4907214;29;20028;-75
2022/06/29 11:03:16;;;;;;;0.00;0.00;;;46.80;41.70;;;;;;4933459;28;20020;-75
2022/06/29 11:14:00;;;;;;;0.00;0.00;;;46.90;40.90;;;;;;4906124;29;20035;-75
2022/06/29 11:16:31;;;;;;;0.00;0.00;;;46.50;39.80;;;;;;4902251;29;20159;-75
2022/06/29 11:18:57;;;;;;;0.00;0.00;;;45.50;40.90;;;;;;4917170;29;20020;-75
2022/06/29 11:21:24;;;;;;;0.00;0.00;;;43.90;41.30;;;;;;4901419;29;20033;-75
2022/06/29 11:24:03;;;;;;;0.00;0.00;;;42.10;42.50;;;;;;4902519;29;20331;-76
2022/06/29 11:26:30;;;;;;;0.00;0.00;;;40.80;44.40;;;;;;4902416;29;20071;-75
2022/06/29 11:28:58;;;;;;;0.00;0.00;;;40.10;45.60;;;;;;4905019;29;20075;-76
2022/06/29 11:31:25;;;;;;;0.00;0.00;;;40.30;46.30;;;;;;4903088;29;20196;-75
2022/06/29 11:33:55;;;;;;;0.00;0.00;;;40.10;46.40;;;;;;4906009;29;20051;-75
2022/06/29 11:36:29;;;;;;;0.00;0.00;;;39.60;46.60;;;;;;4905737;29;20021;-75
2022/06/29 11:39:06;;;;;;;0.00;0.00;;;39.70;46.60;;;;;;4939028;28;20275;-75
2022/06/29 11:44:31;;;;;;;0.00;0.00;;;39.20;47.40;;;;;;4903253;29;20091;-75
2022/06/29 11:46:57;;;;;;;0.00;0.00;;;38.80;47.80;;;;;;4905546;29;20031;-76
2022/06/29 11:49:42;;;;;;;0.00;0.00;;;38.20;48.20;;;;;;4906675;29;20192;-76
2022/06/29 11:52:10;;;;;;;0.00;0.00;;;37.70;49.30;;;;;;4907563;29;20040;-75
2022/06/29 11:55:00;;;;;;;0.00;0.00;;;37.40;49.20;;;;;;4910890;29;20102;-76
2022/06/29 11:57:26;;;;;;;0.00;0.00;;;37.00;50.30;;;;;;4928571;29;20024;-76
2022/06/29 11:59:52;;;;;;;0.00;0.00;;;36.60;49.80;;;;;;4909146;29;20091;-75
2022/06/29 12:02:18;;;;;;;0.00;0.00;;;36.20;50.20;;;;;;4908165;29;20047;-75
2022/06/29 12:04:45;;;;;;;0.00;0.00;;;36.00;51.40;;;;;;4910518;29;20032;-75
2022/06/29 12:07:13;;;;;;;0.00;0.00;;;35.70;51.60;;;;;;4912268;29;20032;-76
2022/06/29 12:09:41;;;;;;;0.00;0.00;;;35.50;52.00;;;;;;4921195;29;20311;-75
2022/06/29 12:12:08;;;;;;;0.00;0.00;;;35.30;52.60;;;;;;4911436;29;20100;-75
2022/06/29 12:14:36;;;;;;;0.00;0.00;;;35.00;52.40;;;;;;4916825;29;20032;-75
2022/06/29 12:17:02;;;;;;;0.00;0.00;;;35.10;52.70;;;;;;4917269;29;20036;-75
2022/06/29 12:19:28;;;;;;;0.00;0.00;;;34.90;52.30;;;;;;4926620;29;20382;-75
2022/06/29 12:21:54;;;;;;;0.00;0.00;;;35.00;52.60;;;;;;4919233;29;20084;-75
2022/06/29 12:24:20;;;;;;;0.00;0.00;;;34.90;52.70;;;;;;4939324;28;20027;-76
2022/06/29 12:26:46;;;;;;;0.00;0.00;;;34.80;52.30;;;;;;4916358;29;20035;-76
2022/06/29 12:29:13;;;;;;;0.00;0.00;;;34.60;52.20;;;;;;4949547;28;20024;-75
2022/06/29 12:31:43;;;;;;;0.00;0.00;;;34.50;52.30;;;;;;4947520;28;20319;-75
2022/06/29 12:34:10;;;;;;;0.00;0.00;;;34.40;52.40;;;;;;4913911;29;20040;-75
2022/06/29 12:36:36;;;;;;;0.00;0.00;;;34.50;52.80;;;;;;4916498;29;20025;-75
2022/06/29 12:39:01;;;;;;;0.00;0.00;;;34.50;53.80;;;;;;4909541;29;20619;-75
2022/06/29 12:41:27;;;;;;;0.00;0.00;;;34.50;52.30;;;;;;4926272;29;20024;-75
2022/06/29 12:43:53;;;;;;;0.00;0.00;;;34.50;53.10;;;;;;4912301;29;20091;-74
2022/06/29 12:46:18;;;;;;;0.00;0.00;;;34.30;52.50;;;;;;4909091;29;20093;-74
2022/06/29 12:48:44;;;;;;;0.00;0.00;;;34.00;53.10;;;;;;4911320;29;20024;-75
2022/06/29 12:51:10;;;;;;;0.00;0.00;;;33.80;53.20;;;;;;4914484;29;20036;-75
2022/06/29 12:53:36;;;;;;;0.00;0.00;;;33.70;53.80;;;;;;4916517;29;20032;-74
2022/06/29 12:56:03;;;;;;;0.00;0.00;;;33.70;53.60;;;;;;4916207;29;20048;-74
2022/06/29 12:58:29;;;;;;;0.00;0.00;;;33.70;53.70;;;;;;4923635;29;20036;-75
2022/06/29 13:00:54;;;;;;;0.00;0.00;;;33.70;54.00;;;;;;4910983;29;20055;-75
2022/06/29 13:03:20;;;;;;;0.00;0.00;;;33.70;53.60;;;;;;4915392;29;20058;-75
2022/06/29 13:05:46;;;;;;;0.00;0.00;;;33.80;53.80;;;;;;4909314;29;20035;-74
2022/06/29 13:08:13;;;;;;;0.00;0.00;;;33.80;52.50;;;;;;4908085;29;20016;-76
2022/06/29 13:10:38;;;;;;;0.00;0.00;;;33.80;52.50;;;;;;4907503;29;20020;-74
2022/06/29 13:13:04;;;;;;;0.00;0.00;;;33.80;52.80;;;;;;4907449;29;20104;-76